createdAt,value
2019-05-12T00:01:02.341Z,56.68
2019-05-12T00:03:31.950Z,56.68
2019-05-12T00:06:01.604Z,56.04
2019-05-12T00:08:31.249Z,56.41
2019-05-12T00:11:00.841Z,55.71
2019-05-12T00:13:30.510Z,54.36
2019-05-12T00:16:00.186Z,53.59
2019-05-12T00:18:29.807Z,54.24
2019-05-12T00:20:59.444Z,54.53
2019-05-12T00:23:31.194Z,54.95
2019-05-12T00:26:00.446Z,56.07
2019-05-12T00:28:30.035Z,56.37
2019-05-12T00:30:59.661Z,56.39
2019-05-12T00:33:29.309Z,54.89
2019-05-12T00:35:58.937Z,55.00
2019-05-12T00:38:28.615Z,55.32
2019-05-12T00:40:58.488Z,56.46
2019-05-12T00:43:28.388Z,57.48
2019-05-12T00:45:58.692Z,58.94
2019-05-12T00:48:28.645Z,60.37
2019-05-12T00:50:58.550Z,60.06
2019-05-12T00:53:37.131Z,60.70
2019-05-12T00:55:59.608Z,61.00
2019-05-12T00:58:29.241Z,61.76
2019-05-12T01:00:59.670Z,63.97
2019-05-12T01:03:29.507Z,61.85
2019-05-12T01:05:59.132Z,62.57
2019-05-12T01:08:28.752Z,63.67
2019-05-12T01:10:58.541Z,63.58
2019-05-12T01:13:28.207Z,61.91
2019-05-12T01:15:58.703Z,63.90
2019-05-12T01:18:28.478Z,65.16
2019-05-12T01:20:58.416Z,66.18
2019-05-12T01:23:28.334Z,66.15
2019-05-12T01:25:58.684Z,68.71
2019-05-12T01:28:28.539Z,69.09
2019-05-12T01:30:59.936Z,66.24
2019-05-12T01:33:29.601Z,67.14
2019-05-12T01:35:59.294Z,64.77
2019-05-12T01:38:28.987Z,64.18
2019-05-12T01:40:58.771Z,63.82
2019-05-12T01:43:28.425Z,66.00
2019-05-12T01:45:58.947Z,67.47
2019-05-12T01:48:28.955Z,65.08
2019-05-12T01:50:58.747Z,63.31
2019-05-12T01:53:28.824Z,64.08
2019-05-12T01:55:58.665Z,62.47
2019-05-12T01:58:28.261Z,62.77
2019-05-12T02:00:58.847Z,62.87
2019-05-12T02:03:28.742Z,63.19
2019-05-12T02:05:59.604Z,62.26
2019-05-12T02:08:35.158Z,63.40
2019-05-12T02:11:22.725Z,63.44
2019-05-12T02:13:52.310Z,63.37
2019-05-12T02:16:21.929Z,63.10
2019-05-12T02:18:51.557Z,62.36
2019-05-12T02:21:21.192Z,63.38
2019-05-12T02:23:50.801Z,64.12
2019-05-12T02:26:20.422Z,63.89
2019-05-12T02:28:50.049Z,64.11
2019-05-12T02:31:20.867Z,63.89
2019-05-12T02:33:50.577Z,64.01
2019-05-12T02:36:20.200Z,63.25
2019-05-12T02:38:49.848Z,62.80
2019-05-12T02:41:19.491Z,62.83
2019-05-12T02:43:49.122Z,63.42
2019-05-12T02:46:18.706Z,63.12
2019-05-12T02:48:48.422Z,63.78
2019-05-12T02:51:18.466Z,64.57
2019-05-12T02:53:48.663Z,65.62
2019-05-12T02:56:20.068Z,66.01
2019-05-12T02:58:54.202Z,67.25
2019-05-12T03:01:24.575Z,68.83
2019-05-12T03:03:56.537Z,67.26
2019-05-12T03:06:28.699Z,66.22
2019-05-12T03:09:04.793Z,65.96
2019-05-12T03:11:36.292Z,64.21
2019-05-12T03:14:06.212Z,63.45
2019-05-12T03:16:35.815Z,62.59
2019-05-12T03:19:05.619Z,61.66
2019-05-12T03:21:35.937Z,60.43
2019-05-12T03:24:06.851Z,59.70
2019-05-12T03:26:36.819Z,59.54
2019-05-12T03:29:06.683Z,59.48
2019-05-12T03:31:39.746Z,58.74
2019-05-12T03:34:10.767Z,59.85
2019-05-12T03:36:42.976Z,60.92
2019-05-12T03:39:10.701Z,60.71
2019-05-12T03:41:40.360Z,61.65
2019-05-12T03:44:09.998Z,62.45
2019-05-12T03:46:39.617Z,62.54
2019-05-12T03:49:09.257Z,61.80
2019-05-12T03:51:38.856Z,63.32
2019-05-12T03:54:08.470Z,64.11
2019-05-12T03:56:38.081Z,63.02
2019-05-12T03:59:07.691Z,62.39
2019-05-12T04:01:37.354Z,63.17
2019-05-12T04:04:07.067Z,63.17
2019-05-12T04:06:36.734Z,61.48
2019-05-12T04:09:09.046Z,60.30
2019-05-12T04:11:38.925Z,59.75
2019-05-12T04:14:08.610Z,68.73
2019-05-12T04:16:38.214Z,75.53
2019-05-12T04:19:07.949Z,74.86
2019-05-12T04:21:37.583Z,72.19
2019-05-12T04:24:07.254Z,70.35
2019-05-12T04:26:37.048Z,73.01
2019-05-12T04:29:06.786Z,74.27
2019-05-12T04:31:37.143Z,75.67
2019-05-12T04:34:06.959Z,74.41
2019-05-12T04:36:36.613Z,73.44
2019-05-12T04:39:08.240Z,85.26
2019-05-12T04:41:38.504Z,85.91
2019-05-12T04:44:08.128Z,85.65
2019-05-12T04:46:37.779Z,79.42
2019-05-12T04:49:07.422Z,81.14
2019-05-12T04:51:37.073Z,77.74
2019-05-12T04:54:06.702Z,76.21
2019-05-12T04:56:36.511Z,78.43
2019-05-12T04:59:06.152Z,78.48
2019-05-12T05:01:35.840Z,80.30
2019-05-12T05:04:06.117Z,81.41
2019-05-12T05:06:36.291Z,80.97
2019-05-12T05:09:08.522Z,82.05
2019-05-12T05:11:38.168Z,72.34
2019-05-12T05:14:07.838Z,73.65
2019-05-12T05:16:37.515Z,74.56
2019-05-12T05:19:07.130Z,69.58
2019-05-12T05:21:36.754Z,69.58
2019-05-12T05:24:06.384Z,74.69
2019-05-12T05:26:37.452Z,72.37
2019-05-12T05:29:07.198Z,72.03
2019-05-12T05:31:36.796Z,71.65
2019-05-12T05:34:06.437Z,71.60
2019-05-12T05:36:36.154Z,67.05
2019-05-12T05:39:07.747Z,67.30
2019-05-12T05:41:40.186Z,67.33
2019-05-12T05:44:08.851Z,64.25
2019-05-12T05:46:47.717Z,65.30
2019-05-12T05:49:09.787Z,64.08
2019-05-12T05:51:45.055Z,65.04
2019-05-12T05:54:10.985Z,61.65
2019-05-12T05:56:48.461Z,62.09
2019-05-12T05:59:14.958Z,61.37
2019-05-12T06:01:46.926Z,59.43
2019-05-12T06:04:18.058Z,61.06
2019-05-12T06:06:52.772Z,60.89
2019-05-12T06:09:23.403Z,59.51
2019-05-12T06:11:54.153Z,58.25
2019-05-12T06:14:24.051Z,60.61
2019-05-12T06:16:56.650Z,59.86
2019-05-12T06:19:29.337Z,59.72
2019-05-12T06:21:58.921Z,60.29
2019-05-12T06:24:33.492Z,60.26
2019-05-12T06:27:14.292Z,59.46
2019-05-12T06:29:34.212Z,56.50
2019-05-12T06:32:06.317Z,59.22
2019-05-12T06:34:35.301Z,58.90
2019-05-12T06:37:11.896Z,59.65
2019-05-12T06:39:36.250Z,58.81
2019-05-12T06:42:12.245Z,59.85
2019-05-12T06:44:37.342Z,59.91
2019-05-12T06:47:08.351Z,60.41
2019-05-12T06:49:38.274Z,59.88
2019-05-12T06:52:11.494Z,62.29
2019-05-12T06:54:44.570Z,60.57
2019-05-12T06:57:22.194Z,60.41
2019-05-12T06:59:51.032Z,61.05
2019-05-12T07:02:18.374Z,59.07
2019-05-12T07:04:56.301Z,59.48
2019-05-12T07:07:19.347Z,58.34
2019-05-12T07:09:54.279Z,58.81
2019-05-12T07:12:24.818Z,59.24
2019-05-12T07:14:55.429Z,58.11
2019-05-12T07:17:47.723Z,57.66
2019-05-12T07:20:14.691Z,58.12
2019-05-12T07:22:48.339Z,53.58
2019-05-12T07:25:15.789Z,56.03
2019-05-12T07:27:53.618Z,56.09
2019-05-12T07:30:20.144Z,56.61
2019-05-12T07:32:59.732Z,55.49
2019-05-12T07:35:24.025Z,57.60
2019-05-12T07:37:54.880Z,58.01
2019-05-12T07:40:29.864Z,56.03
2019-05-12T07:42:57.543Z,54.85
2019-05-12T07:45:27.726Z,52.84
2019-05-12T07:47:59.373Z,54.12
2019-05-12T07:50:28.822Z,55.01
2019-05-12T07:52:58.416Z,52.70
2019-05-12T07:55:27.988Z,53.71
2019-05-12T07:58:03.959Z,56.74
2019-05-12T08:00:28.989Z,55.33
2019-05-12T08:02:58.630Z,55.68
2019-05-12T08:05:28.253Z,55.40
2019-05-12T08:08:00.557Z,51.22
2019-05-12T08:10:29.270Z,53.34
2019-05-12T08:13:00.785Z,56.08
2019-05-12T08:15:30.241Z,54.22
2019-05-12T08:17:59.842Z,54.58
2019-05-12T08:20:29.443Z,54.85
2019-05-12T08:22:59.705Z,52.83
2019-05-12T08:25:30.556Z,53.83
2019-05-12T08:28:14.522Z,55.95
2019-05-12T08:30:40.251Z,51.47
2019-05-12T08:33:09.795Z,52.85
2019-05-12T08:35:39.043Z,52.68
2019-05-12T08:38:08.737Z,52.07
2019-05-12T08:40:45.035Z,49.53
2019-05-12T08:43:10.660Z,51.22
2019-05-12T08:45:40.596Z,51.77
2019-05-12T08:48:16.020Z,51.56
2019-05-12T08:50:45.368Z,51.34
2019-05-12T08:53:20.575Z,53.46
2019-05-12T08:55:44.318Z,52.94
2019-05-12T08:58:29.344Z,53.09
2019-05-12T09:00:49.699Z,53.21
2019-05-12T09:03:20.415Z,54.92
2019-05-12T09:05:48.485Z,56.06
2019-05-12T09:08:18.594Z,54.04
2019-05-12T09:10:48.198Z,55.04
2019-05-12T09:13:17.808Z,52.94
2019-05-12T09:15:47.414Z,52.69
2019-05-12T09:18:18.905Z,54.59
2019-05-12T09:20:52.792Z,56.58
2019-05-12T09:23:19.781Z,52.67
2019-05-12T09:25:49.514Z,52.77
2019-05-12T09:28:19.088Z,51.74
2019-05-12T09:30:49.490Z,49.96
2019-05-12T09:33:29.588Z,50.41
2019-05-12T09:35:55.142Z,49.94
2019-05-12T09:38:26.431Z,49.85
2019-05-12T09:41:00.697Z,51.20
2019-05-12T09:43:28.403Z,51.16
2019-05-12T09:45:57.991Z,51.91
2019-05-12T09:48:27.683Z,50.13
2019-05-12T09:51:02.032Z,48.09
2019-05-12T09:53:28.683Z,48.90
2019-05-12T09:55:58.684Z,50.41
2019-05-12T09:58:29.051Z,48.38
2019-05-12T10:00:58.723Z,48.68
2019-05-12T10:03:30.752Z,50.05
2019-05-12T10:06:00.071Z,48.86
2019-05-12T10:08:35.655Z,48.50
2019-05-12T10:11:03.620Z,47.66
2019-05-12T10:13:32.860Z,49.63
2019-05-12T10:16:07.411Z,49.84
2019-05-12T10:18:34.292Z,48.82
2019-05-12T10:21:04.234Z,48.00
2019-05-12T10:23:34.181Z,47.86
2019-05-12T10:26:09.978Z,49.39
2019-05-12T10:28:35.571Z,48.06
2019-05-12T10:31:05.258Z,45.80
2019-05-12T10:33:34.845Z,45.80
2019-05-12T10:36:08.433Z,47.90
2019-05-12T10:38:35.933Z,47.78
2019-05-12T10:41:05.558Z,48.01
2019-05-12T10:43:35.154Z,45.80
2019-05-12T10:46:05.150Z,46.68
2019-05-12T10:48:34.749Z,46.40
2019-05-12T10:51:04.390Z,44.62
2019-05-12T10:53:34.196Z,45.46
2019-05-12T10:56:04.007Z,45.46
2019-05-12T10:58:33.707Z,46.64
2019-05-12T11:01:05.279Z,46.01
2019-05-12T11:03:34.850Z,47.76
2019-05-12T11:06:07.487Z,47.76
2019-05-12T11:08:35.950Z,47.16
2019-05-12T11:11:05.613Z,47.79
2019-05-12T11:13:35.213Z,50.11
2019-05-12T11:16:04.888Z,49.43
2019-05-12T11:18:36.583Z,49.03
2019-05-12T11:21:06.173Z,49.03
2019-05-12T11:23:38.092Z,48.26
2019-05-12T11:26:07.733Z,50.24
2019-05-12T11:28:38.477Z,49.90
2019-05-12T11:31:10.928Z,51.36
2019-05-12T11:33:40.629Z,51.36
2019-05-12T11:36:13.587Z,50.62
2019-05-12T11:38:44.473Z,48.99
2019-05-12T11:41:19.916Z,48.07
2019-05-12T11:43:46.799Z,50.02
2019-05-12T11:46:16.392Z,50.80
2019-05-12T11:48:50.207Z,52.26
2019-05-12T11:51:20.857Z,51.86
2019-05-12T11:53:48.877Z,50.15
2019-05-12T11:56:18.738Z,46.93
2019-05-12T11:58:51.514Z,48.36
2019-05-12T12:01:24.127Z,47.78
2019-05-12T12:03:54.699Z,50.11
2019-05-12T12:06:24.749Z,52.78
2019-05-12T12:08:54.520Z,52.92
2019-05-12T12:11:27.982Z,54.46
2019-05-12T12:14:00.467Z,53.42
2019-05-12T12:16:28.514Z,55.04
2019-05-12T12:19:02.885Z,54.93
2019-05-12T12:21:34.313Z,55.53
2019-05-12T12:24:03.762Z,55.43
2019-05-12T12:26:37.121Z,55.44
2019-05-12T12:37:10.414Z,56.49
2019-05-12T12:39:43.435Z,53.25
2019-05-12T12:42:16.897Z,52.37
2019-05-12T12:44:48.417Z,56.31
2019-05-12T12:47:23.711Z,55.18
2019-05-12T12:49:54.549Z,54.12
2019-05-12T12:52:27.856Z,58.13
2019-05-12T12:54:59.358Z,61.41
2019-05-12T12:57:30.437Z,64.08
2019-05-12T13:00:00.657Z,64.11
2019-05-12T13:02:30.817Z,63.09
2019-05-12T13:05:04.128Z,66.86
2019-05-12T13:07:39.254Z,84.04
2019-05-12T13:10:09.879Z,100.00
2019-05-12T13:12:43.797Z,100.00
2019-05-12T13:15:14.653Z,100.00
2019-05-12T13:17:44.811Z,100.00
2019-05-12T13:20:17.638Z,100.00
2019-05-12T13:22:53.644Z,100.00
2019-05-12T13:25:27.129Z,100.00
2019-05-12T13:28:10.226Z,100.00
2019-05-12T13:30:46.076Z,100.00
2019-05-12T13:33:14.885Z,100.00
2019-05-12T13:35:45.011Z,100.00
2019-05-12T13:38:15.489Z,100.00
2019-05-12T13:40:53.801Z,100.00
2019-05-12T13:43:39.583Z,98.83
2019-05-12T13:46:10.074Z,100.00
2019-05-12T13:48:39.797Z,100.00
2019-05-12T13:51:15.618Z,96.18
2019-05-12T13:53:46.354Z,96.02
2019-05-12T13:56:25.838Z,87.52
2019-05-12T13:58:54.186Z,91.36
2019-05-12T14:01:24.999Z,77.21
2019-05-12T14:03:55.134Z,80.44
2019-05-12T14:06:31.974Z,78.00
2019-05-12T14:08:59.009Z,80.84
2019-05-12T14:11:30.047Z,76.54
2019-05-12T14:14:11.273Z,76.28
2019-05-12T14:16:44.661Z,73.34
2019-05-12T14:19:14.527Z,75.48
2019-05-12T14:21:44.626Z,73.09
2019-05-12T14:24:16.704Z,77.10
2019-05-12T14:26:49.542Z,70.01
2019-05-12T14:29:26.716Z,75.50
2019-05-12T14:32:02.136Z,73.06
2019-05-12T14:34:30.894Z,72.91
2019-05-12T14:37:08.441Z,68.55
2019-05-12T14:39:34.353Z,64.12
2019-05-12T14:42:04.328Z,68.58
2019-05-12T14:44:38.086Z,68.80
2019-05-12T14:47:05.541Z,69.09
2019-05-12T14:49:35.266Z,70.50
2019-05-12T14:52:04.914Z,69.29
2019-05-12T14:54:34.536Z,68.25
2019-05-12T14:57:05.467Z,68.37
2019-05-12T14:59:40.926Z,68.69
2019-05-12T15:02:07.174Z,69.12
2019-05-12T15:04:36.771Z,66.10
2019-05-12T15:07:09.983Z,67.20
2019-05-12T15:09:37.749Z,65.50
2019-05-12T15:12:21.044Z,61.98
2019-05-12T15:14:47.802Z,59.13
2019-05-12T15:17:22.712Z,58.12
2019-05-12T15:19:51.307Z,58.02
2019-05-12T15:22:20.926Z,56.36
2019-05-12T15:24:56.957Z,55.04
2019-05-12T15:27:38.294Z,55.32
2019-05-12T15:29:59.525Z,54.32
2019-05-12T15:32:28.697Z,56.11
2019-05-12T15:34:58.423Z,53.84
2019-05-12T15:37:29.086Z,52.56
2019-05-12T15:39:59.682Z,53.00
2019-05-12T15:42:34.443Z,53.98
2019-05-12T15:45:06.582Z,50.81
2019-05-12T15:47:35.851Z,48.96
2019-05-12T15:50:06.405Z,50.15
2019-05-12T15:52:42.231Z,50.54
2019-05-12T15:55:08.123Z,50.83
2019-05-12T15:57:38.073Z,49.40
2019-05-12T16:00:07.802Z,49.02
2019-05-12T16:02:37.476Z,50.17
2019-05-12T16:05:10.245Z,48.78
2019-05-12T16:07:39.871Z,49.54
2019-05-12T16:10:10.011Z,47.65
2019-05-12T16:12:39.647Z,48.69
2019-05-12T16:15:11.522Z,49.22
2019-05-12T16:17:40.816Z,47.94
2019-05-12T16:20:11.122Z,48.11
2019-05-12T16:22:44.960Z,48.34
2019-05-12T16:25:14.810Z,51.50
2019-05-12T16:27:44.588Z,51.85
2019-05-12T16:30:15.240Z,52.81
2019-05-12T16:32:47.861Z,52.21
2019-05-12T16:35:20.259Z,52.78
2019-05-12T16:37:48.372Z,52.64
2019-05-12T16:40:18.231Z,50.75
2019-05-12T16:42:52.672Z,49.38
2019-05-12T16:45:20.059Z,51.33
2019-05-12T16:47:50.089Z,50.91
2019-05-12T16:50:25.401Z,52.52
2019-05-12T16:52:53.457Z,51.65
2019-05-12T16:55:24.166Z,51.28
2019-05-12T16:57:56.102Z,50.27
2019-05-12T17:00:25.394Z,50.47
2019-05-12T17:02:57.996Z,49.07
2019-05-12T17:05:26.325Z,49.42
2019-05-12T17:07:57.495Z,46.24
2019-05-12T17:10:27.241Z,45.55
2019-05-12T17:12:57.024Z,48.62
2019-05-12T17:15:26.631Z,47.77
2019-05-12T17:18:01.297Z,45.92
2019-05-12T17:20:28.121Z,46.89
2019-05-12T17:23:00.132Z,47.58
2019-05-12T17:25:29.113Z,46.12
2019-05-12T17:28:03.682Z,47.14
2019-05-12T17:30:30.085Z,46.91
2019-05-12T17:33:02.512Z,47.33
2019-05-12T17:35:32.444Z,47.03
2019-05-12T17:38:04.226Z,47.34
2019-05-12T17:40:34.040Z,50.78
2019-05-12T17:43:11.614Z,51.17
2019-05-12T17:45:35.053Z,50.00
2019-05-12T17:48:07.535Z,51.59
2019-05-12T17:50:40.574Z,50.79
2019-05-12T17:53:07.536Z,52.76
2019-05-12T17:55:42.606Z,53.36
2019-05-12T17:58:08.606Z,52.95
2019-05-12T18:00:41.333Z,53.55
2019-05-12T18:03:18.154Z,55.10
2019-05-12T18:05:42.538Z,54.54
2019-05-12T18:08:14.207Z,54.62
2019-05-12T18:10:43.824Z,56.65
2019-05-12T18:13:14.992Z,53.62
2019-05-12T18:15:44.963Z,54.89
2019-05-12T18:18:17.510Z,54.32
2019-05-12T18:20:46.949Z,54.96
2019-05-12T18:23:19.758Z,55.24
2019-05-12T18:25:50.197Z,55.50
2019-05-12T18:28:21.574Z,55.49
2019-05-12T18:30:53.669Z,55.29
2019-05-12T18:33:33.577Z,55.77
2019-05-12T18:35:54.437Z,55.98
2019-05-12T18:38:26.648Z,56.74
2019-05-12T18:40:55.601Z,56.77
2019-05-12T18:43:25.191Z,57.49
2019-05-12T18:46:02.719Z,59.54
2019-05-12T18:48:26.352Z,61.02
2019-05-12T18:50:56.050Z,61.45
2019-05-12T18:53:31.544Z,60.93
2019-05-12T18:55:56.998Z,60.43
2019-05-12T18:58:31.065Z,60.94
2019-05-12T19:00:57.960Z,57.94
2019-05-12T19:03:27.550Z,57.68
2019-05-12T19:05:58.283Z,57.70
2019-05-12T19:08:28.065Z,59.57
2019-05-12T19:10:57.837Z,61.62
2019-05-12T19:13:27.590Z,62.29
2019-05-12T19:16:02.410Z,58.60
2019-05-12T19:18:32.667Z,61.89
2019-05-12T19:20:59.882Z,62.45
2019-05-12T19:23:34.989Z,61.91
2019-05-12T19:26:00.936Z,61.53
2019-05-12T19:28:30.527Z,61.86
2019-05-12T19:31:01.036Z,61.19
2019-05-12T19:33:31.567Z,60.70
2019-05-12T19:36:06.431Z,66.33
2019-05-12T19:38:34.511Z,63.95
2019-05-12T19:41:05.487Z,74.27
2019-05-12T19:43:39.191Z,77.08
2019-05-12T19:46:06.598Z,64.03
2019-05-12T19:48:48.003Z,59.93
2019-05-12T19:51:20.740Z,58.34
2019-05-12T19:53:38.935Z,58.63
2019-05-12T19:56:08.650Z,57.68
2019-05-12T20:01:18.326Z,59.49
2019-05-12T20:03:50.005Z,58.01
2019-05-12T20:06:19.660Z,56.03
2019-05-12T20:08:55.784Z,54.77
2019-05-12T20:11:26.526Z,54.60
2019-05-12T20:13:53.763Z,54.34
2019-05-12T20:16:29.733Z,54.94
2019-05-12T20:18:57.552Z,55.63
2019-05-12T20:21:28.318Z,54.37
2019-05-12T20:23:57.611Z,61.47
2019-05-12T20:26:27.231Z,62.27
2019-05-12T20:28:56.783Z,61.65
2019-05-12T20:31:27.730Z,58.22
2019-05-12T20:34:04.540Z,60.43
2019-05-12T20:36:28.561Z,61.65
2019-05-12T20:38:58.186Z,59.25
2019-05-12T20:41:27.760Z,55.78
2019-05-12T20:43:57.328Z,56.36
2019-05-12T20:46:26.900Z,57.88
2019-05-12T20:49:01.267Z,58.73
2019-05-12T20:51:27.778Z,59.78
2019-05-12T20:53:57.349Z,61.77
2019-05-12T20:56:26.899Z,60.57
2019-05-12T20:58:56.485Z,59.44
2019-05-12T21:01:30.112Z,59.23
2019-05-12T21:03:57.412Z,59.31
2019-05-12T21:06:27.010Z,59.06
2019-05-12T21:08:56.866Z,60.20
2019-05-12T21:11:26.484Z,61.92
2019-05-12T21:13:56.064Z,59.94
2019-05-12T21:16:34.609Z,60.80
2019-05-12T21:19:07.569Z,59.62
2019-05-12T21:21:34.348Z,63.34
2019-05-12T21:24:01.283Z,63.19
2019-05-12T21:26:34.692Z,58.59
2019-05-12T21:29:04.554Z,58.32
2019-05-12T21:31:33.800Z,60.35
2019-05-12T21:34:06.587Z,63.58
2019-05-12T21:36:34.749Z,61.78
2019-05-12T21:39:10.355Z,59.96
2019-05-12T21:41:40.769Z,58.36
2019-05-12T21:44:11.274Z,59.52
2019-05-12T21:46:46.953Z,65.93
2019-05-12T21:49:12.940Z,74.97
2019-05-12T21:51:44.654Z,86.39
2019-05-12T21:54:14.327Z,96.50
2019-05-12T21:56:49.164Z,100.00
2019-05-12T21:59:15.718Z,100.00
2019-05-12T22:01:46.042Z,100.00
2019-05-12T22:04:15.786Z,100.00
2019-05-12T22:06:45.499Z,100.00
2019-05-12T22:09:17.569Z,100.00
2019-05-12T22:11:51.032Z,100.00
2019-05-12T22:14:17.672Z,100.00
2019-05-12T22:16:49.463Z,100.00
2019-05-12T22:19:19.095Z,100.00
2019-05-12T22:21:49.600Z,100.00
2019-05-12T22:24:24.507Z,100.00
2019-05-12T22:26:50.693Z,100.00
2019-05-12T22:29:21.217Z,100.00
2019-05-12T22:31:51.615Z,100.00
2019-05-12T22:34:21.198Z,100.00
2019-05-12T22:36:55.434Z,100.00
2019-05-12T22:39:22.102Z,100.00
2019-05-12T22:41:51.717Z,100.00
2019-05-12T22:44:24.556Z,100.00
2019-05-12T22:46:54.105Z,100.00
2019-05-12T22:49:23.820Z,100.00
2019-05-12T22:51:56.588Z,100.00
2019-05-12T22:54:24.754Z,100.00
2019-05-12T22:56:55.203Z,100.00
2019-05-12T22:59:25.687Z,100.00
2019-05-12T23:01:55.256Z,100.00
2019-05-12T23:04:25.980Z,100.00
2019-05-12T23:06:56.154Z,100.00
2019-05-12T23:09:29.935Z,100.00
2019-05-12T23:11:57.070Z,100.00
2019-05-12T23:14:26.688Z,100.00
2019-05-12T23:17:00.013Z,100.00
2019-05-12T23:19:27.575Z,100.00
2019-05-12T23:21:58.729Z,100.00
2019-05-12T23:24:30.547Z,100.00
2019-05-12T23:26:59.867Z,100.00
2019-05-12T23:29:31.004Z,100.00
2019-05-12T23:32:09.907Z,100.00
2019-05-12T23:34:33.865Z,100.00
2019-05-12T23:37:03.990Z,100.00
2019-05-12T23:39:37.969Z,100.00
2019-05-12T23:42:04.968Z,100.00
2019-05-12T23:44:34.583Z,100.00
2019-05-12T23:47:04.465Z,100.00
2019-05-12T23:49:34.159Z,100.00
2019-05-12T23:52:04.107Z,100.00
2019-05-12T23:54:34.542Z,100.00
2019-05-12T23:57:04.212Z,100.00
2019-05-12T23:59:33.811Z,100.00
